sensor_id;sensor_type;location;lat;lon;timestamp;P1;durP1;ratioP1;P2;durP2;ratioP2
9789;SDS011;4934;50.852;8.098;2022-08-06T00:00:21;5.80;;;3.40;;
9789;SDS011;4934;50.852;8.098;2022-08-06T00:02:47;6.90;;;3.70;;
9789;SDS011;4934;50.852;8.098;2022-08-06T00:05:13;8.00;;;3.70;;
9789;SDS011;4934;50.852;8.098;2022-08-06T00:07:38;8.38;;;3.63;;
9789;SDS011;4934;50.852;8.098;2022-08-06T00:10:04;5.38;;;3.65;;
9789;SDS011;4934;50.852;8.098;2022-08-06T00:12:30;6.97;;;3.83;;
9789;SDS011;4934;50.852;8.098;2022-08-06T00:14:57;5.43;;;4.03;;
9789;SDS011;4934;50.852;8.098;2022-08-06T00:17:23;7.50;;;3.88;;
9789;SDS011;4934;50.852;8.098;2022-08-06T00:19:50;16.60;;;3.92;;
9789;SDS011;4934;50.852;8.098;2022-08-06T00:22:15;4.93;;;3.90;;
9789;SDS011;4934;50.852;8.098;2022-08-06T00:24:41;8.88;;;4.07;;
9789;SDS011;4934;50.852;8.098;2022-08-06T00:27:07;8.13;;;4.00;;
9789;SDS011;4934;50.852;8.098;2022-08-06T00:29:33;6.75;;;4.28;;
9789;SDS011;4934;50.852;8.098;2022-08-06T00:31:58;6.88;;;4.20;;
9789;SDS011;4934;50.852;8.098;2022-08-06T00:34:24;8.13;;;4.40;;
9789;SDS011;4934;50.852;8.098;2022-08-06T00:36:50;6.13;;;3.83;;
9789;SDS011;4934;50.852;8.098;2022-08-06T00:39:15;6.63;;;4.22;;
9789;SDS011;4934;50.852;8.098;2022-08-06T00:41:41;9.98;;;4.55;;
9789;SDS011;4934;50.852;8.098;2022-08-06T00:44:07;5.63;;;3.67;;
9789;SDS011;4934;50.852;8.098;2022-08-06T00:46:33;9.65;;;3.67;;
9789;SDS011;4934;50.852;8.098;2022-08-06T00:48:59;8.65;;;3.33;;
9789;SDS011;4934;50.852;8.098;2022-08-06T00:51:25;6.93;;;3.72;;
9789;SDS011;4934;50.852;8.098;2022-08-06T00:53:50;6.25;;;3.38;;
9789;SDS011;4934;50.852;8.098;2022-08-06T00:56:17;5.40;;;3.72;;
9789;SDS011;4934;50.852;8.098;2022-08-06T00:58:42;5.03;;;3.30;;
9789;SDS011;4934;50.852;8.098;2022-08-06T01:01:08;5.05;;;3.72;;
9789;SDS011;4934;50.852;8.098;2022-08-06T01:03:35;4.70;;;3.63;;
9789;SDS011;4934;50.852;8.098;2022-08-06T01:06:01;10.30;;;3.90;;
9789;SDS011;4934;50.852;8.098;2022-08-06T01:08:27;7.57;;;3.97;;
9789;SDS011;4934;50.852;8.098;2022-08-06T01:10:53;6.82;;;4.38;;
9789;SDS011;4934;50.852;8.098;2022-08-06T01:13:18;15.18;;;7.07;;
9789;SDS011;4934;50.852;8.098;2022-08-06T01:15:46;10.50;;;6.40;;
9789;SDS011;4934;50.852;8.098;2022-08-06T01:18:25;12.88;;;6.95;;
9789;SDS011;4934;50.852;8.098;2022-08-06T01:29:09;12.02;;;6.32;;
9789;SDS011;4934;50.852;8.098;2022-08-06T01:31:47;9.80;;;4.93;;
9789;SDS011;4934;50.852;8.098;2022-08-06T01:34:23;7.53;;;4.15;;
9789;SDS011;4934;50.852;8.098;2022-08-06T01:36:57;6.70;;;4.18;;
9789;SDS011;4934;50.852;8.098;2022-08-06T01:39:42;6.68;;;3.85;;
9789;SDS011;4934;50.852;8.098;2022-08-06T01:42:11;10.82;;;5.15;;
9789;SDS011;4934;50.852;8.098;2022-08-06T01:44:39;6.30;;;4.38;;
9789;SDS011;4934;50.852;8.098;2022-08-06T01:47:10;6.97;;;3.72;;
9789;SDS011;4934;50.852;8.098;2022-08-06T01:49:38;6.72;;;3.85;;
9789;SDS011;4934;50.852;8.098;2022-08-06T01:52:07;7.90;;;3.72;;
9789;SDS011;4934;50.852;8.098;2022-08-06T01:54:36;6.07;;;3.58;;
9789;SDS011;4934;50.852;8.098;2022-08-06T01:57:05;6.97;;;4.05;;
9789;SDS011;4934;50.852;8.098;2022-08-06T01:59:32;6.22;;;3.75;;
9789;SDS011;4934;50.852;8.098;2022-08-06T02:02:02;4.72;;;3.50;;
9789;SDS011;4934;50.852;8.098;2022-08-06T02:04:31;7.47;;;4.10;;
9789;SDS011;4934;50.852;8.098;2022-08-06T02:07:01;7.13;;;3.10;;
9789;SDS011;4934;50.852;8.098;2022-08-06T02:09:30;7.15;;;3.90;;
9789;SDS011;4934;50.852;8.098;2022-08-06T02:12:03;5.22;;;3.53;;
9789;SDS011;4934;50.852;8.098;2022-08-06T02:14:34;8.90;;;3.42;;
9789;SDS011;4934;50.852;8.098;2022-08-06T02:17:04;12.90;;;4.05;;
9789;SDS011;4934;50.852;8.098;2022-08-06T02:19:31;5.32;;;3.83;;
9789;SDS011;4934;50.852;8.098;2022-08-06T02:21:58;6.70;;;3.13;;
9789;SDS011;4934;50.852;8.098;2022-08-06T02:24:26;5.07;;;3.40;;
9789;SDS011;4934;50.852;8.098;2022-08-06T02:26:53;5.55;;;3.30;;
9789;SDS011;4934;50.852;8.098;2022-08-06T02:29:21;5.35;;;3.20;;
9789;SDS011;4934;50.852;8.098;2022-08-06T02:31:48;7.32;;;3.30;;
9789;SDS011;4934;50.852;8.098;2022-08-06T02:34:14;4.70;;;2.90;;
9789;SDS011;4934;50.852;8.098;2022-08-06T02:36:41;7.28;;;3.53;;
9789;SDS011;4934;50.852;8.098;2022-08-06T02:39:17;5.80;;;3.20;;
9789;SDS011;4934;50.852;8.098;2022-08-06T02:47:23;4.15;;;2.70;;
9789;SDS011;4934;50.852;8.098;2022-08-06T02:49:52;7.22;;;2.90;;
9789;SDS011;4934;50.852;8.098;2022-08-06T02:52:22;4.88;;;2.80;;
9789;SDS011;4934;50.852;8.098;2022-08-06T02:55:10;10.75;;;2.60;;
9789;SDS011;4934;50.852;8.098;2022-08-06T02:57:48;5.55;;;3.05;;
9789;SDS011;4934;50.852;8.098;2022-08-06T03:00:16;4.20;;;2.75;;
9789;SDS011;4934;50.852;8.098;2022-08-06T03:02:44;3.90;;;2.80;;
9789;SDS011;4934;50.852;8.098;2022-08-06T03:07:42;4.50;;;2.58;;
9789;SDS011;4934;50.852;8.098;2022-08-06T03:12:38;5.80;;;3.13;;
9789;SDS011;4934;50.852;8.098;2022-08-06T03:15:04;5.30;;;2.65;;
9789;SDS011;4934;50.852;8.098;2022-08-06T03:17:31;3.35;;;2.65;;
9789;SDS011;4934;50.852;8.098;2022-08-06T03:20:00;4.65;;;3.10;;
9789;SDS011;4934;50.852;8.098;2022-08-06T03:22:27;3.13;;;2.65;;
9789;SDS011;4934;50.852;8.098;2022-08-06T03:24:55;5.23;;;2.90;;
9789;SDS011;4934;50.852;8.098;2022-08-06T03:27:22;3.50;;;2.70;;
9789;SDS011;4934;50.852;8.098;2022-08-06T03:29:49;4.00;;;2.92;;
9789;SDS011;4934;50.852;8.098;2022-08-06T03:32:16;3.15;;;2.70;;
9789;SDS011;4934;50.852;8.098;2022-08-06T03:34:42;3.85;;;2.42;;
9789;SDS011;4934;50.852;8.098;2022-08-06T03:37:08;5.43;;;2.67;;
9789;SDS011;4934;50.852;8.098;2022-08-06T03:39:36;6.60;;;3.38;;
9789;SDS011;4934;50.852;8.098;2022-08-06T03:44:29;5.80;;;3.22;;
9789;SDS011;4934;50.852;8.098;2022-08-06T03:46:58;7.30;;;3.50;;
9789;SDS011;4934;50.852;8.098;2022-08-06T03:49:30;7.57;;;3.72;;
9789;SDS011;4934;50.852;8.098;2022-08-06T03:52:00;4.07;;;3.10;;
9789;SDS011;4934;50.852;8.098;2022-08-06T03:54:31;3.47;;;2.42;;
9789;SDS011;4934;50.852;8.098;2022-08-06T03:57:06;7.20;;;3.08;;
9789;SDS011;4934;50.852;8.098;2022-08-06T03:59:39;7.55;;;2.78;;
9789;SDS011;4934;50.852;8.098;2022-08-06T04:02:11;3.65;;;2.40;;
9789;SDS011;4934;50.852;8.098;2022-08-06T04:07:06;6.22;;;3.00;;
9789;SDS011;4934;50.852;8.098;2022-08-06T04:09:33;5.95;;;3.35;;
9789;SDS011;4934;50.852;8.098;2022-08-06T04:12:00;3.28;;;2.60;;
9789;SDS011;4934;50.852;8.098;2022-08-06T04:14:27;3.63;;;2.50;;
9789;SDS011;4934;50.852;8.098;2022-08-06T04:16:53;5.22;;;2.42;;
9789;SDS011;4934;50.852;8.098;2022-08-06T04:19:20;5.57;;;2.92;;
9789;SDS011;4934;50.852;8.098;2022-08-06T04:21:47;5.72;;;2.95;;
9789;SDS011;4934;50.852;8.098;2022-08-06T04:24:13;3.95;;;2.80;;
9789;SDS011;4934;50.852;8.098;2022-08-06T04:26:39;7.15;;;3.05;;
9789;SDS011;4934;50.852;8.098;2022-08-06T04:29:08;5.78;;;2.72;;
9789;SDS011;4934;50.852;8.098;2022-08-06T04:31:36;6.53;;;3.08;;
9789;SDS011;4934;50.852;8.098;2022-08-06T04:34:03;4.40;;;2.83;;
9789;SDS011;4934;50.852;8.098;2022-08-06T04:36:29;3.38;;;2.83;;
9789;SDS011;4934;50.852;8.098;2022-08-06T04:38:55;3.28;;;2.63;;
9789;SDS011;4934;50.852;8.098;2022-08-06T04:41:22;4.90;;;3.05;;
9789;SDS011;4934;50.852;8.098;2022-08-06T04:43:48;3.58;;;2.80;;
9789;SDS011;4934;50.852;8.098;2022-08-06T04:46:14;6.78;;;2.78;;
9789;SDS011;4934;50.852;8.098;2022-08-06T04:48:40;3.78;;;2.90;;
9789;SDS011;4934;50.852;8.098;2022-08-06T04:51:06;4.93;;;3.55;;
9789;SDS011;4934;50.852;8.098;2022-08-06T04:53:39;5.30;;;3.05;;
9789;SDS011;4934;50.852;8.098;2022-08-06T04:56:06;5.63;;;3.03;;
9789;SDS011;4934;50.852;8.098;2022-08-06T04:58:33;4.25;;;2.83;;
9789;SDS011;4934;50.852;8.098;2022-08-06T05:01:00;4.32;;;3.22;;
9789;SDS011;4934;50.852;8.098;2022-08-06T05:03:27;4.93;;;3.30;;
9789;SDS011;4934;50.852;8.098;2022-08-06T05:05:55;3.10;;;2.75;;
9789;SDS011;4934;50.852;8.098;2022-08-06T05:08:28;4.72;;;3.25;;
9789;SDS011;4934;50.852;8.098;2022-08-06T05:11:07;6.45;;;2.95;;
9789;SDS011;4934;50.852;8.098;2022-08-06T05:13:34;3.63;;;2.97;;
9789;SDS011;4934;50.852;8.098;2022-08-06T05:16:03;5.68;;;2.80;;
9789;SDS011;4934;50.852;8.098;2022-08-06T05:18:51;9.55;;;3.53;;
9789;SDS011;4934;50.852;8.098;2022-08-06T05:21:32;7.93;;;2.70;;
9789;SDS011;4934;50.852;8.098;2022-08-06T05:26:27;5.60;;;2.60;;
9789;SDS011;4934;50.852;8.098;2022-08-06T05:28:53;3.63;;;2.80;;
9789;SDS011;4934;50.852;8.098;2022-08-06T05:31:31;3.92;;;2.83;;
9789;SDS011;4934;50.852;8.098;2022-08-06T05:34:00;6.35;;;2.65;;
9789;SDS011;4934;50.852;8.098;2022-08-06T05:36:28;5.07;;;3.38;;
9789;SDS011;4934;50.852;8.098;2022-08-06T05:38:54;7.50;;;2.97;;
9789;SDS011;4934;50.852;8.098;2022-08-06T05:41:19;4.63;;;2.97;;
9789;SDS011;4934;50.852;8.098;2022-08-06T05:43:45;5.38;;;2.97;;
9789;SDS011;4934;50.852;8.098;2022-08-06T05:46:14;6.97;;;2.83;;
9789;SDS011;4934;50.852;8.098;2022-08-06T05:48:42;3.78;;;2.53;;
9789;SDS011;4934;50.852;8.098;2022-08-06T05:51:16;4.85;;;2.97;;
9789;SDS011;4934;50.852;8.098;2022-08-06T05:53:47;7.45;;;3.60;;
9789;SDS011;4934;50.852;8.098;2022-08-06T05:56:21;7.72;;;3.25;;
9789;SDS011;4934;50.852;8.098;2022-08-06T05:58:53;5.40;;;3.17;;
9789;SDS011;4934;50.852;8.098;2022-08-06T06:01:46;4.47;;;2.88;;
9789;SDS011;4934;50.852;8.098;2022-08-06T06:04:14;5.93;;;2.93;;
9789;SDS011;4934;50.852;8.098;2022-08-06T06:06:40;4.47;;;3.08;;
9789;SDS011;4934;50.852;8.098;2022-08-06T06:09:07;6.35;;;3.00;;
9789;SDS011;4934;50.852;8.098;2022-08-06T06:11:33;3.80;;;2.95;;
9789;SDS011;4934;50.852;8.098;2022-08-06T06:14:01;3.00;;;2.60;;
9789;SDS011;4934;50.852;8.098;2022-08-06T06:16:29;3.40;;;2.63;;
9789;SDS011;4934;50.852;8.098;2022-08-06T06:22:03;5.47;;;3.45;;
9789;SDS011;4934;50.852;8.098;2022-08-06T06:24:58;6.50;;;3.40;;
9789;SDS011;4934;50.852;8.098;2022-08-06T06:27:52;5.22;;;3.40;;
9789;SDS011;4934;50.852;8.098;2022-08-06T06:30:25;5.47;;;3.38;;
9789;SDS011;4934;50.852;8.098;2022-08-06T06:33:11;5.30;;;3.35;;
9789;SDS011;4934;50.852;8.098;2022-08-06T06:35:53;10.25;;;2.92;;
9789;SDS011;4934;50.852;8.098;2022-08-06T06:41:36;5.22;;;2.97;;
9789;SDS011;4934;50.852;8.098;2022-08-06T06:44:46;5.55;;;2.83;;
9789;SDS011;4934;50.852;8.098;2022-08-06T06:47:45;11.05;;;2.75;;
9789;SDS011;4934;50.852;8.098;2022-08-06T06:50:25;6.47;;;2.60;;
9789;SDS011;4934;50.852;8.098;2022-08-06T06:52:54;3.83;;;2.85;;
9789;SDS011;4934;50.852;8.098;2022-08-06T06:55:30;3.50;;;2.65;;
9789;SDS011;4934;50.852;8.098;2022-08-06T06:58:07;5.05;;;2.55;;
9789;SDS011;4934;50.852;8.098;2022-08-06T07:00:38;4.20;;;2.40;;
9789;SDS011;4934;50.852;8.098;2022-08-06T07:03:05;4.88;;;2.95;;
9789;SDS011;4934;50.852;8.098;2022-08-06T07:05:32;6.57;;;3.40;;
9789;SDS011;4934;50.852;8.098;2022-08-06T07:08:01;9.25;;;3.08;;
9789;SDS011;4934;50.852;8.098;2022-08-06T07:10:29;5.85;;;2.95;;
9789;SDS011;4934;50.852;8.098;2022-08-06T07:12:56;4.85;;;2.80;;
9789;SDS011;4934;50.852;8.098;2022-08-06T07:15:23;3.95;;;2.88;;
9789;SDS011;4934;50.852;8.098;2022-08-06T07:17:50;3.92;;;3.25;;
9789;SDS011;4934;50.852;8.098;2022-08-06T07:20:26;4.32;;;2.58;;
9789;SDS011;4934;50.852;8.098;2022-08-06T07:22:54;4.70;;;2.83;;
9789;SDS011;4934;50.852;8.098;2022-08-06T07:25:22;7.78;;;2.00;;
9789;SDS011;4934;50.852;8.098;2022-08-06T07:27:50;6.43;;;2.10;;
9789;SDS011;4934;50.852;8.098;2022-08-06T07:30:16;1.88;;;1.38;;
9789;SDS011;4934;50.852;8.098;2022-08-06T07:32:44;1.50;;;1.27;;
9789;SDS011;4934;50.852;8.098;2022-08-06T07:35:13;12.77;;;1.70;;
9789;SDS011;4934;50.852;8.098;2022-08-06T07:38:02;4.55;;;1.20;;
9789;SDS011;4934;50.852;8.098;2022-08-06T07:40:34;2.15;;;1.25;;
9789;SDS011;4934;50.852;8.098;2022-08-06T07:43:16;2.30;;;1.20;;
9789;SDS011;4934;50.852;8.098;2022-08-06T07:45:46;1.95;;;1.13;;
9789;SDS011;4934;50.852;8.098;2022-08-06T07:48:15;2.65;;;1.30;;
9789;SDS011;4934;50.852;8.098;2022-08-06T07:50:44;2.45;;;1.20;;
9789;SDS011;4934;50.852;8.098;2022-08-06T07:53:13;2.63;;;1.10;;
9789;SDS011;4934;50.852;8.098;2022-08-06T07:55:39;2.78;;;0.95;;
9789;SDS011;4934;50.852;8.098;2022-08-06T07:58:05;3.28;;;1.35;;
9789;SDS011;4934;50.852;8.098;2022-08-06T08:00:32;3.85;;;1.00;;
9789;SDS011;4934;50.852;8.098;2022-08-06T08:02:59;3.42;;;1.30;;
9789;SDS011;4934;50.852;8.098;2022-08-06T08:05:44;6.03;;;1.23;;
9789;SDS011;4934;50.852;8.098;2022-08-06T08:08:29;3.35;;;1.13;;
9789;SDS011;4934;50.852;8.098;2022-08-06T08:10:55;2.53;;;1.27;;
9789;SDS011;4934;50.852;8.098;2022-08-06T08:13:21;3.30;;;1.10;;
9789;SDS011;4934;50.852;8.098;2022-08-06T08:15:49;7.22;;;1.23;;
9789;SDS011;4934;50.852;8.098;2022-08-06T08:18:14;4.78;;;1.17;;
9789;SDS011;4934;50.852;8.098;2022-08-06T08:20:41;3.38;;;1.15;;
9789;SDS011;4934;50.852;8.098;2022-08-06T08:23:09;2.22;;;1.25;;
9789;SDS011;4934;50.852;8.098;2022-08-06T08:25:37;2.97;;;1.10;;
9789;SDS011;4934;50.852;8.098;2022-08-06T08:28:07;5.30;;;1.20;;
9789;SDS011;4934;50.852;8.098;2022-08-06T08:30:36;2.08;;;1.20;;
9789;SDS011;4934;50.852;8.098;2022-08-06T08:33:04;2.95;;;1.00;;
9789;SDS011;4934;50.852;8.098;2022-08-06T08:35:29;0.93;;;0.80;;
9789;SDS011;4934;50.852;8.098;2022-08-06T08:37:55;5.90;;;1.15;;
9789;SDS011;4934;50.852;8.098;2022-08-06T08:40:21;1.95;;;0.82;;
9789;SDS011;4934;50.852;8.098;2022-08-06T08:42:48;2.92;;;1.00;;
9789;SDS011;4934;50.852;8.098;2022-08-06T08:45:19;1.77;;;0.88;;
9789;SDS011;4934;50.852;8.098;2022-08-06T08:47:49;1.90;;;1.02;;
9789;SDS011;4934;50.852;8.098;2022-08-06T08:50:20;3.65;;;1.00;;
9789;SDS011;4934;50.852;8.098;2022-08-06T08:52:49;1.83;;;1.30;;
9789;SDS011;4934;50.852;8.098;2022-08-06T08:57:46;2.53;;;0.93;;
9789;SDS011;4934;50.852;8.098;2022-08-06T09:00:13;1.95;;;1.00;;
9789;SDS011;4934;50.852;8.098;2022-08-06T09:02:39;1.58;;;1.10;;
9789;SDS011;4934;50.852;8.098;2022-08-06T09:05:05;2.95;;;1.10;;
9789;SDS011;4934;50.852;8.098;2022-08-06T09:07:31;1.60;;;1.17;;
9789;SDS011;4934;50.852;8.098;2022-08-06T09:09:58;3.50;;;1.30;;
9789;SDS011;4934;50.852;8.098;2022-08-06T09:12:24;2.33;;;1.17;;
9789;SDS011;4934;50.852;8.098;2022-08-06T09:14:49;3.13;;;1.40;;
9789;SDS011;4934;50.852;8.098;2022-08-06T09:17:15;5.60;;;1.10;;
9789;SDS011;4934;50.852;8.098;2022-08-06T09:19:42;1.70;;;1.08;;
9789;SDS011;4934;50.852;8.098;2022-08-06T09:22:08;2.13;;;0.90;;
9789;SDS011;4934;50.852;8.098;2022-08-06T09:24:35;1.98;;;0.95;;
9789;SDS011;4934;50.852;8.098;2022-08-06T09:27:09;1.80;;;1.15;;
9789;SDS011;4934;50.852;8.098;2022-08-06T09:29:52;4.75;;;1.10;;
9789;SDS011;4934;50.852;8.098;2022-08-06T09:37:48;2.13;;;0.95;;
9789;SDS011;4934;50.852;8.098;2022-08-06T09:40:16;3.40;;;1.20;;
9789;SDS011;4934;50.852;8.098;2022-08-06T09:42:44;2.15;;;0.80;;
9789;SDS011;4934;50.852;8.098;2022-08-06T09:45:14;3.28;;;0.98;;
9789;SDS011;4934;50.852;8.098;2022-08-06T09:47:41;3.20;;;1.00;;
9789;SDS011;4934;50.852;8.098;2022-08-06T09:50:08;4.03;;;1.05;;
9789;SDS011;4934;50.852;8.098;2022-08-06T09:52:34;2.50;;;0.90;;
9789;SDS011;4934;50.852;8.098;2022-08-06T09:55:00;3.08;;;0.90;;
9789;SDS011;4934;50.852;8.098;2022-08-06T09:57:27;3.85;;;0.85;;
9789;SDS011;4934;50.852;8.098;2022-08-06T10:00:06;3.55;;;0.85;;
9789;SDS011;4934;50.852;8.098;2022-08-06T10:02:33;7.47;;;1.27;;
9789;SDS011;4934;50.852;8.098;2022-08-06T10:05:06;2.53;;;1.00;;
9789;SDS011;4934;50.852;8.098;2022-08-06T10:07:36;2.58;;;0.80;;
9789;SDS011;4934;50.852;8.098;2022-08-06T10:10:02;1.83;;;0.80;;
9789;SDS011;4934;50.852;8.098;2022-08-06T10:12:30;2.65;;;0.90;;
9789;SDS011;4934;50.852;8.098;2022-08-06T10:14:58;3.22;;;1.02;;
9789;SDS011;4934;50.852;8.098;2022-08-06T10:17:24;2.53;;;0.95;;
9789;SDS011;4934;50.852;8.098;2022-08-06T10:20:10;1.98;;;0.90;;
9789;SDS011;4934;50.852;8.098;2022-08-06T10:22:53;6.63;;;0.82;;
9789;SDS011;4934;50.852;8.098;2022-08-06T10:25:22;1.25;;;0.70;;
9789;SDS011;4934;50.852;8.098;2022-08-06T10:27:48;2.85;;;0.80;;
9789;SDS011;4934;50.852;8.098;2022-08-06T10:30:18;1.13;;;0.77;;
9789;SDS011;4934;50.852;8.098;2022-08-06T10:32:47;2.92;;;0.90;;
9789;SDS011;4934;50.852;8.098;2022-08-06T10:35:22;3.38;;;1.00;;
9789;SDS011;4934;50.852;8.098;2022-08-06T10:37:53;3.33;;;1.08;;
9789;SDS011;4934;50.852;8.098;2022-08-06T10:40:23;3.08;;;0.80;;
9789;SDS011;4934;50.852;8.098;2022-08-06T10:42:51;3.10;;;0.90;;
9789;SDS011;4934;50.852;8.098;2022-08-06T10:45:18;1.75;;;0.90;;
9789;SDS011;4934;50.852;8.098;2022-08-06T10:47:44;1.50;;;0.80;;
9789;SDS011;4934;50.852;8.098;2022-08-06T10:50:12;4.53;;;0.85;;
9789;SDS011;4934;50.852;8.098;2022-08-06T10:52:43;2.92;;;0.70;;
9789;SDS011;4934;50.852;8.098;2022-08-06T10:55:09;2.58;;;0.93;;
9789;SDS011;4934;50.852;8.098;2022-08-06T10:57:36;2.65;;;0.82;;
9789;SDS011;4934;50.852;8.098;2022-08-06T11:00:05;3.90;;;0.95;;
9789;SDS011;4934;50.852;8.098;2022-08-06T11:05:17;3.88;;;0.73;;
9789;SDS011;4934;50.852;8.098;2022-08-06T11:16:58;1.08;;;0.60;;
9789;SDS011;4934;50.852;8.098;2022-08-06T11:19:57;1.65;;;0.95;;
9789;SDS011;4934;50.852;8.098;2022-08-06T11:25:04;4.60;;;1.00;;
9789;SDS011;4934;50.852;8.098;2022-08-06T11:27:51;1.33;;;0.75;;
9789;SDS011;4934;50.852;8.098;2022-08-06T11:30:21;1.58;;;0.82;;
9789;SDS011;4934;50.852;8.098;2022-08-06T11:33:11;1.10;;;0.68;;
9789;SDS011;4934;50.852;8.098;2022-08-06T11:35:40;3.42;;;1.08;;
9789;SDS011;4934;50.852;8.098;2022-08-06T11:38:09;1.50;;;0.82;;
9789;SDS011;4934;50.852;8.098;2022-08-06T11:54:27;1.10;;;0.77;;
9789;SDS011;4934;50.852;8.098;2022-08-06T11:59:32;1.52;;;0.70;;
9789;SDS011;4934;50.852;8.098;2022-08-06T12:02:14;2.17;;;0.70;;
9789;SDS011;4934;50.852;8.098;2022-08-06T12:04:42;1.70;;;0.77;;
9789;SDS011;4934;50.852;8.098;2022-08-06T12:07:13;3.35;;;0.80;;
9789;SDS011;4934;50.852;8.098;2022-08-06T12:18:03;1.77;;;0.80;;
9789;SDS011;4934;50.852;8.098;2022-08-06T12:22:58;2.42;;;0.70;;
9789;SDS011;4934;50.852;8.098;2022-08-06T12:25:38;1.70;;;0.60;;
9789;SDS011;4934;50.852;8.098;2022-08-06T12:28:06;1.45;;;0.57;;
9789;SDS011;4934;50.852;8.098;2022-08-06T12:30:42;2.67;;;0.70;;
9789;SDS011;4934;50.852;8.098;2022-08-06T12:33:12;3.63;;;0.77;;
9789;SDS011;4934;50.852;8.098;2022-08-06T12:35:55;2.88;;;0.70;;
9789;SDS011;4934;50.852;8.098;2022-08-06T12:38:26;1.63;;;0.80;;
9789;SDS011;4934;50.852;8.098;2022-08-06T12:40:57;2.70;;;0.80;;
9789;SDS011;4934;50.852;8.098;2022-08-06T12:43:24;4.27;;;0.80;;
9789;SDS011;4934;50.852;8.098;2022-08-06T12:45:59;2.50;;;0.60;;
9789;SDS011;4934;50.852;8.098;2022-08-06T12:48:35;2.08;;;0.80;;
9789;SDS011;4934;50.852;8.098;2022-08-06T12:53:51;3.50;;;0.82;;
9789;SDS011;4934;50.852;8.098;2022-08-06T12:56:20;0.88;;;0.57;;
9789;SDS011;4934;50.852;8.098;2022-08-06T12:58:47;0.85;;;0.52;;
9789;SDS011;4934;50.852;8.098;2022-08-06T13:01:18;2.22;;;0.60;;
9789;SDS011;4934;50.852;8.098;2022-08-06T13:03:47;3.42;;;1.00;;
9789;SDS011;4934;50.852;8.098;2022-08-06T13:08:41;1.50;;;0.70;;
9789;SDS011;4934;50.852;8.098;2022-08-06T13:11:11;2.80;;;0.73;;
9789;SDS011;4934;50.852;8.098;2022-08-06T13:13:41;1.17;;;0.50;;
9789;SDS011;4934;50.852;8.098;2022-08-06T13:16:12;2.92;;;0.60;;
9789;SDS011;4934;50.852;8.098;2022-08-06T13:18:39;5.25;;;0.90;;
9789;SDS011;4934;50.852;8.098;2022-08-06T13:21:16;1.80;;;0.77;;
9789;SDS011;4934;50.852;8.098;2022-08-06T13:31:33;1.27;;;1.05;;
9789;SDS011;4934;50.852;8.098;2022-08-06T13:34:01;3.53;;;0.88;;
9789;SDS011;4934;50.852;8.098;2022-08-06T13:36:28;2.25;;;0.82;;
9789;SDS011;4934;50.852;8.098;2022-08-06T13:38:55;1.20;;;0.68;;
9789;SDS011;4934;50.852;8.098;2022-08-06T13:41:25;2.13;;;0.68;;
9789;SDS011;4934;50.852;8.098;2022-08-06T13:43:51;1.83;;;0.70;;
9789;SDS011;4934;50.852;8.098;2022-08-06T13:46:18;11.20;;;1.00;;
9789;SDS011;4934;50.852;8.098;2022-08-06T13:48:48;1.73;;;0.65;;
9789;SDS011;4934;50.852;8.098;2022-08-06T13:51:15;3.67;;;0.60;;
9789;SDS011;4934;50.852;8.098;2022-08-06T13:53:41;2.25;;;0.68;;
9789;SDS011;4934;50.852;8.098;2022-08-06T13:56:07;0.80;;;0.55;;
9789;SDS011;4934;50.852;8.098;2022-08-06T13:58:33;1.38;;;1.00;;
9789;SDS011;4934;50.852;8.098;2022-08-06T14:00:59;1.83;;;0.75;;
9789;SDS011;4934;50.852;8.098;2022-08-06T14:03:25;1.63;;;0.50;;
9789;SDS011;4934;50.852;8.098;2022-08-06T14:05:52;1.75;;;0.60;;
9789;SDS011;4934;50.852;8.098;2022-08-06T14:08:17;2.05;;;0.60;;
9789;SDS011;4934;50.852;8.098;2022-08-06T14:10:43;0.75;;;0.50;;
9789;SDS011;4934;50.852;8.098;2022-08-06T14:13:09;1.83;;;0.50;;
9789;SDS011;4934;50.852;8.098;2022-08-06T14:15:47;2.28;;;0.73;;
9789;SDS011;4934;50.852;8.098;2022-08-06T14:18:14;1.05;;;0.50;;
9789;SDS011;4934;50.852;8.098;2022-08-06T14:20:41;1.48;;;0.60;;
9789;SDS011;4934;50.852;8.098;2022-08-06T14:23:07;1.35;;;0.70;;
9789;SDS011;4934;50.852;8.098;2022-08-06T14:25:34;0.65;;;0.52;;
9789;SDS011;4934;50.852;8.098;2022-08-06T14:28:00;1.98;;;0.52;;
9789;SDS011;4934;50.852;8.098;2022-08-06T14:30:25;1.75;;;0.65;;
9789;SDS011;4934;50.852;8.098;2022-08-06T14:32:52;5.35;;;0.50;;
9789;SDS011;4934;50.852;8.098;2022-08-06T14:35:19;0.50;;;0.50;;
9789;SDS011;4934;50.852;8.098;2022-08-06T14:37:45;1.80;;;0.43;;
9789;SDS011;4934;50.852;8.098;2022-08-06T14:40:19;2.78;;;0.57;;
9789;SDS011;4934;50.852;8.098;2022-08-06T14:43:03;0.90;;;0.50;;
9789;SDS011;4934;50.852;8.098;2022-08-06T14:45:48;1.42;;;0.55;;
9789;SDS011;4934;50.852;8.098;2022-08-06T14:48:14;3.70;;;0.50;;
9789;SDS011;4934;50.852;8.098;2022-08-06T14:50:39;0.82;;;0.40;;
9789;SDS011;4934;50.852;8.098;2022-08-06T14:53:05;1.42;;;0.50;;
9789;SDS011;4934;50.852;8.098;2022-08-06T14:55:31;1.15;;;0.50;;
9789;SDS011;4934;50.852;8.098;2022-08-06T14:57:56;1.27;;;0.52;;
9789;SDS011;4934;50.852;8.098;2022-08-06T15:00:22;2.15;;;0.73;;
9789;SDS011;4934;50.852;8.098;2022-08-06T15:02:48;3.05;;;0.80;;
9789;SDS011;4934;50.852;8.098;2022-08-06T15:05:16;1.77;;;0.68;;
9789;SDS011;4934;50.852;8.098;2022-08-06T15:07:42;1.85;;;0.85;;
9789;SDS011;4934;50.852;8.098;2022-08-06T15:10:10;1.20;;;0.50;;
9789;SDS011;4934;50.852;8.098;2022-08-06T15:12:36;1.45;;;0.65;;
9789;SDS011;4934;50.852;8.098;2022-08-06T15:15:03;3.05;;;0.60;;
9789;SDS011;4934;50.852;8.098;2022-08-06T15:17:30;3.13;;;0.73;;
9789;SDS011;4934;50.852;8.098;2022-08-06T15:19:56;0.73;;;0.63;;
9789;SDS011;4934;50.852;8.098;2022-08-06T15:22:22;0.77;;;0.50;;
9789;SDS011;4934;50.852;8.098;2022-08-06T15:24:48;2.58;;;0.50;;
9789;SDS011;4934;50.852;8.098;2022-08-06T15:27:14;0.55;;;0.30;;
9789;SDS011;4934;50.852;8.098;2022-08-06T15:29:44;1.42;;;0.50;;
9789;SDS011;4934;50.852;8.098;2022-08-06T15:32:10;0.70;;;0.50;;
9789;SDS011;4934;50.852;8.098;2022-08-06T15:34:36;1.00;;;0.50;;
9789;SDS011;4934;50.852;8.098;2022-08-06T15:37:02;1.13;;;0.40;;
9789;SDS011;4934;50.852;8.098;2022-08-06T15:39:28;2.95;;;0.40;;
9789;SDS011;4934;50.852;8.098;2022-08-06T15:41:57;0.88;;;0.50;;
9789;SDS011;4934;50.852;8.098;2022-08-06T15:44:23;2.42;;;0.60;;
9789;SDS011;4934;50.852;8.098;2022-08-06T15:46:49;1.42;;;0.60;;
9789;SDS011;4934;50.852;8.098;2022-08-06T15:49:15;3.92;;;0.60;;
9789;SDS011;4934;50.852;8.098;2022-08-06T15:51:42;0.50;;;0.40;;
9789;SDS011;4934;50.852;8.098;2022-08-06T15:54:11;1.65;;;0.50;;
9789;SDS011;4934;50.852;8.098;2022-08-06T15:56:37;2.45;;;0.80;;
9789;SDS011;4934;50.852;8.098;2022-08-06T15:59:02;1.73;;;0.60;;
9789;SDS011;4934;50.852;8.098;2022-08-06T16:01:30;2.05;;;0.60;;
9789;SDS011;4934;50.852;8.098;2022-08-06T16:03:56;1.30;;;0.50;;
9789;SDS011;4934;50.852;8.098;2022-08-06T16:06:21;2.40;;;0.52;;
9789;SDS011;4934;50.852;8.098;2022-08-06T16:08:47;1.90;;;0.38;;
9789;SDS011;4934;50.852;8.098;2022-08-06T16:11:12;2.35;;;0.52;;
9789;SDS011;4934;50.852;8.098;2022-08-06T16:13:38;1.67;;;0.55;;
9789;SDS011;4934;50.852;8.098;2022-08-06T16:16:04;1.40;;;0.60;;
9789;SDS011;4934;50.852;8.098;2022-08-06T16:18:34;0.50;;;0.47;;
9789;SDS011;4934;50.852;8.098;2022-08-06T16:23:26;2.47;;;0.60;;
9789;SDS011;4934;50.852;8.098;2022-08-06T16:25:54;1.30;;;0.50;;
9789;SDS011;4934;50.852;8.098;2022-08-06T16:28:19;2.88;;;0.65;;
9789;SDS011;4934;50.852;8.098;2022-08-06T16:30:45;0.73;;;0.60;;
9789;SDS011;4934;50.852;8.098;2022-08-06T16:33:11;1.67;;;0.60;;
9789;SDS011;4934;50.852;8.098;2022-08-06T16:35:37;2.30;;;0.57;;
9789;SDS011;4934;50.852;8.098;2022-08-06T16:38:03;0.57;;;0.43;;
9789;SDS011;4934;50.852;8.098;2022-08-06T16:40:29;2.72;;;1.25;;
9789;SDS011;4934;50.852;8.098;2022-08-06T16:42:58;3.42;;;1.15;;
9789;SDS011;4934;50.852;8.098;2022-08-06T16:45:24;2.67;;;1.13;;
9789;SDS011;4934;50.852;8.098;2022-08-06T16:47:51;3.05;;;0.70;;
9789;SDS011;4934;50.852;8.098;2022-08-06T16:50:17;2.65;;;0.38;;
9789;SDS011;4934;50.852;8.098;2022-08-06T16:52:43;0.57;;;0.50;;
9789;SDS011;4934;50.852;8.098;2022-08-06T16:55:10;1.88;;;0.50;;
9789;SDS011;4934;50.852;8.098;2022-08-06T16:57:37;0.50;;;0.40;;
9789;SDS011;4934;50.852;8.098;2022-08-06T17:00:06;2.13;;;0.60;;
9789;SDS011;4934;50.852;8.098;2022-08-06T17:02:34;0.65;;;0.50;;
9789;SDS011;4934;50.852;8.098;2022-08-06T17:05:07;1.30;;;0.60;;